sensor_id;sensor_type;location;lat;lon;timestamp;pressure;altitude;pressure_sealevel;temperature;humidity
37858;BME280;23695;55.868;37.472;2022-08-19T00:00:25;99994.81;;;21.26;nan
37858;BME280;23695;55.868;37.472;2022-08-19T00:02:51;100000.50;;;21.22;nan
37858;BME280;23695;55.868;37.472;2022-08-19T00:05:17;100000.91;;;21.16;nan
37858;BME280;23695;55.868;37.472;2022-08-19T00:07:43;100007.28;;;21.15;nan
37858;BME280;23695;55.868;37.472;2022-08-19T00:10:10;100008.22;;;21.14;nan
37858;BME280;23695;55.868;37.472;2022-08-19T00:12:37;100011.13;;;21.10;nan
37858;BME280;23695;55.868;37.472;2022-08-19T00:15:05;100019.16;;;21.10;nan
37858;BME280;23695;55.868;37.472;2022-08-19T00:17:31;100012.53;;;21.03;nan
37858;BME280;23695;55.868;37.472;2022-08-19T00:19:57;100009.09;;;21.01;nan
37858;BME280;23695;55.868;37.472;2022-08-19T00:22:23;100006.72;;;20.97;nan
37858;BME280;23695;55.868;37.472;2022-08-19T00:24:49;100006.09;;;20.93;nan
37858;BME280;23695;55.868;37.472;2022-08-19T00:27:15;100003.41;;;20.93;nan
37858;BME280;23695;55.868;37.472;2022-08-19T00:29:41;100014.22;;;20.92;nan
37858;BME280;23695;55.868;37.472;2022-08-19T00:32:07;100000.06;;;20.89;nan
37858;BME280;23695;55.868;37.472;2022-08-19T00:34:32;100010.13;;;20.86;nan
37858;BME280;23695;55.868;37.472;2022-08-19T00:36:58;100010.34;;;20.83;nan
37858;BME280;23695;55.868;37.472;2022-08-19T00:39:25;100016.78;;;20.80;nan
37858;BME280;23695;55.868;37.472;2022-08-19T00:41:51;100009.59;;;20.81;nan
37858;BME280;23695;55.868;37.472;2022-08-19T00:44:23;100016.88;;;20.79;nan
37858;BME280;23695;55.868;37.472;2022-08-19T00:46:51;100018.09;;;20.75;nan
37858;BME280;23695;55.868;37.472;2022-08-19T00:49:52;100018.09;;;20.75;nan
37858;BME280;23695;55.868;37.472;2022-08-19T00:52:41;100025.47;;;20.71;nan
37858;BME280;23695;55.868;37.472;2022-08-19T00:55:18;100031.66;;;20.72;nan
37858;BME280;23695;55.868;37.472;2022-08-19T00:57:52;100022.16;;;20.67;nan
37858;BME280;23695;55.868;37.472;2022-08-19T01:00:21;100025.78;;;20.66;nan
37858;BME280;23695;55.868;37.472;2022-08-19T01:02:47;100032.19;;;20.64;nan
37858;BME280;23695;55.868;37.472;2022-08-19T01:05:16;100032.09;;;20.65;nan
37858;BME280;23695;55.868;37.472;2022-08-19T01:07:44;100030.59;;;20.61;nan
37858;BME280;23695;55.868;37.472;2022-08-19T01:10:14;100028.97;;;20.59;nan
37858;BME280;23695;55.868;37.472;2022-08-19T01:12:41;100025.59;;;20.55;nan
37858;BME280;23695;55.868;37.472;2022-08-19T01:15:08;100035.22;;;20.45;nan
37858;BME280;23695;55.868;37.472;2022-08-19T01:17:36;100028.47;;;20.39;nan
37858;BME280;23695;55.868;37.472;2022-08-19T01:20:04;100034.78;;;20.38;nan
37858;BME280;23695;55.868;37.472;2022-08-19T01:22:57;100050.41;;;20.32;nan
37858;BME280;23695;55.868;37.472;2022-08-19T01:25:31;100059.63;;;20.27;nan
37858;BME280;23695;55.868;37.472;2022-08-19T01:27:57;100053.69;;;20.22;nan
37858;BME280;23695;55.868;37.472;2022-08-19T01:30:30;100053.88;;;20.19;nan
37858;BME280;23695;55.868;37.472;2022-08-19T01:32:56;100049.03;;;20.12;nan
37858;BME280;23695;55.868;37.472;2022-08-19T01:35:24;100054.78;;;20.05;nan
37858;BME280;23695;55.868;37.472;2022-08-19T01:37:53;100051.25;;;20.05;nan
37858;BME280;23695;55.868;37.472;2022-08-19T01:40:21;100060.66;;;19.98;nan
37858;BME280;23695;55.868;37.472;2022-08-19T01:42:48;100053.75;;;19.94;nan
37858;BME280;23695;55.868;37.472;2022-08-19T01:45:16;100053.97;;;19.91;nan
37858;BME280;23695;55.868;37.472;2022-08-19T01:47:42;100067.56;;;19.88;nan
37858;BME280;23695;55.868;37.472;2022-08-19T01:50:09;100058.00;;;19.83;nan
37858;BME280;23695;55.868;37.472;2022-08-19T01:52:37;100056.88;;;19.73;nan
37858;BME280;23695;55.868;37.472;2022-08-19T01:55:05;100061.34;;;19.73;nan
37858;BME280;23695;55.868;37.472;2022-08-19T01:57:32;100062.59;;;19.67;nan
37858;BME280;23695;55.868;37.472;2022-08-19T01:59:59;100047.31;;;19.69;nan
37858;BME280;23695;55.868;37.472;2022-08-19T02:02:25;100059.13;;;19.65;nan
37858;BME280;23695;55.868;37.472;2022-08-19T02:04:51;100054.75;;;19.64;nan
37858;BME280;23695;55.868;37.472;2022-08-19T02:07:19;100051.97;;;19.65;nan
37858;BME280;23695;55.868;37.472;2022-08-19T02:09:47;100051.31;;;19.62;nan
37858;BME280;23695;55.868;37.472;2022-08-19T02:12:14;100053.13;;;19.61;nan
37858;BME280;23695;55.868;37.472;2022-08-19T02:14:42;100053.78;;;19.65;nan
37858;BME280;23695;55.868;37.472;2022-08-19T02:17:08;100052.09;;;19.64;nan
37858;BME280;23695;55.868;37.472;2022-08-19T02:19:34;100055.53;;;19.66;nan
37858;BME280;23695;55.868;37.472;2022-08-19T02:22:00;100061.72;;;19.67;nan
37858;BME280;23695;55.868;37.472;2022-08-19T02:24:26;100064.31;;;19.68;nan
37858;BME280;23695;55.868;37.472;2022-08-19T02:26:53;100064.41;;;19.67;nan
37858;BME280;23695;55.868;37.472;2022-08-19T02:29:19;100054.56;;;19.67;nan
37858;BME280;23695;55.868;37.472;2022-08-19T02:31:45;100048.84;;;19.73;nan
37858;BME280;23695;55.868;37.472;2022-08-19T02:34:11;100053.03;;;19.77;nan
37858;BME280;23695;55.868;37.472;2022-08-19T02:36:37;100061.63;;;19.68;nan
37858;BME280;23695;55.868;37.472;2022-08-19T02:39:03;100070.03;;;19.62;nan
37858;BME280;23695;55.868;37.472;2022-08-19T02:41:31;100073.28;;;19.67;nan
37858;BME280;23695;55.868;37.472;2022-08-19T02:43:59;100073.28;;;19.67;nan
37858;BME280;23695;55.868;37.472;2022-08-19T02:46:30;100091.06;;;19.68;nan
37858;BME280;23695;55.868;37.472;2022-08-19T02:49:01;100078.47;;;19.70;nan
37858;BME280;23695;55.868;37.472;2022-08-19T02:51:39;100078.84;;;19.64;nan
37858;BME280;23695;55.868;37.472;2022-08-19T02:54:06;100076.03;;;19.65;nan
37858;BME280;23695;55.868;37.472;2022-08-19T02:56:37;100085.56;;;19.71;nan
37858;BME280;23695;55.868;37.472;2022-08-19T02:59:04;100077.03;;;19.79;nan
37858;BME280;23695;55.868;37.472;2022-08-19T03:01:36;100062.59;;;19.81;nan
37858;BME280;23695;55.868;37.472;2022-08-19T03:04:05;100074.34;;;19.79;nan
37858;BME280;23695;55.868;37.472;2022-08-19T03:06:36;100079.22;;;19.72;nan
37858;BME280;23695;55.868;37.472;2022-08-19T03:09:02;100076.56;;;19.72;nan
37858;BME280;23695;55.868;37.472;2022-08-19T03:11:30;100078.94;;;19.77;nan
37858;BME280;23695;55.868;37.472;2022-08-19T03:13:58;100086.19;;;19.75;nan
37858;BME280;23695;55.868;37.472;2022-08-19T03:16:26;100077.22;;;19.76;nan
37858;BME280;23695;55.868;37.472;2022-08-19T03:18:52;100080.75;;;19.76;nan
37858;BME280;23695;55.868;37.472;2022-08-19T03:21:24;100084.00;;;19.81;nan
37858;BME280;23695;55.868;37.472;2022-08-19T03:23:54;100098.91;;;19.85;nan
37858;BME280;23695;55.868;37.472;2022-08-19T03:26:20;100095.75;;;19.79;nan
37858;BME280;23695;55.868;37.472;2022-08-19T03:28:46;100102.72;;;19.81;nan
37858;BME280;23695;55.868;37.472;2022-08-19T03:31:20;100084.84;;;19.82;nan
37858;BME280;23695;55.868;37.472;2022-08-19T03:33:49;100097.00;;;19.88;nan
37858;BME280;23695;55.868;37.472;2022-08-19T03:36:18;100079.69;;;19.93;nan
37858;BME280;23695;55.868;37.472;2022-08-19T03:38:52;100079.94;;;20.03;nan
37858;BME280;23695;55.868;37.472;2022-08-19T03:41:22;100086.63;;;20.10;nan
37858;BME280;23695;55.868;37.472;2022-08-19T03:43:48;100075.31;;;20.19;nan
37858;BME280;23695;55.868;37.472;2022-08-19T03:46:17;100079.31;;;20.26;nan
37858;BME280;23695;55.868;37.472;2022-08-19T03:48:47;100091.34;;;20.34;nan
37858;BME280;23695;55.868;37.472;2022-08-19T03:51:18;100089.31;;;20.37;nan
37858;BME280;23695;55.868;37.472;2022-08-19T03:53:45;100084.59;;;20.41;nan
37858;BME280;23695;55.868;37.472;2022-08-19T03:56:11;100089.19;;;20.53;nan
37858;BME280;23695;55.868;37.472;2022-08-19T03:58:38;100085.34;;;20.57;nan
37858;BME280;23695;55.868;37.472;2022-08-19T04:01:10;100079.78;;;20.60;nan
37858;BME280;23695;55.868;37.472;2022-08-19T04:03:36;100083.41;;;20.59;nan
37858;BME280;23695;55.868;37.472;2022-08-19T04:08:40;100084.53;;;20.55;nan
37858;BME280;23695;55.868;37.472;2022-08-19T04:11:10;100088.28;;;20.53;nan
37858;BME280;23695;55.868;37.472;2022-08-19T04:13:36;100091.47;;;20.59;nan
37858;BME280;23695;55.868;37.472;2022-08-19T04:16:03;100094.34;;;20.56;nan
37858;BME280;23695;55.868;37.472;2022-08-19T04:18:29;100089.53;;;20.61;nan
37858;BME280;23695;55.868;37.472;2022-08-19T04:20:56;100089.25;;;20.79;nan
37858;BME280;23695;55.868;37.472;2022-08-19T04:23:22;100084.16;;;20.88;nan
37858;BME280;23695;55.868;37.472;2022-08-19T04:25:48;100099.84;;;21.07;nan
37858;BME280;23695;55.868;37.472;2022-08-19T04:28:14;100094.88;;;21.14;nan
37858;BME280;23695;55.868;37.472;2022-08-19T04:30:47;100091.91;;;21.44;nan
37858;BME280;23695;55.868;37.472;2022-08-19T04:33:15;100092.81;;;21.45;nan
37858;BME280;23695;55.868;37.472;2022-08-19T04:35:46;100089.34;;;21.56;nan
37858;BME280;23695;55.868;37.472;2022-08-19T04:38:13;100093.25;;;21.88;nan
37858;BME280;23695;55.868;37.472;2022-08-19T04:40:45;100096.94;;;22.24;nan
37858;BME280;23695;55.868;37.472;2022-08-19T04:43:30;100093.91;;;22.53;nan
37858;BME280;23695;55.868;37.472;2022-08-19T04:45:57;100104.41;;;22.45;nan
37858;BME280;23695;55.868;37.472;2022-08-19T04:48:23;100087.81;;;22.51;nan
37858;BME280;23695;55.868;37.472;2022-08-19T04:50:54;100086.66;;;22.66;nan
37858;BME280;23695;55.868;37.472;2022-08-19T04:53:27;100090.63;;;22.85;nan
37858;BME280;23695;55.868;37.472;2022-08-19T04:55:55;100090.19;;;22.91;nan
37858;BME280;23695;55.868;37.472;2022-08-19T04:58:23;100097.09;;;22.82;nan
37858;BME280;23695;55.868;37.472;2022-08-19T05:00:48;100101.00;;;22.78;nan
37858;BME280;23695;55.868;37.472;2022-08-19T05:03:14;100106.91;;;22.59;nan
37858;BME280;23695;55.868;37.472;2022-08-19T05:05:44;100105.81;;;22.62;nan
37858;BME280;23695;55.868;37.472;2022-08-19T05:08:11;100103.47;;;22.57;nan
37858;BME280;23695;55.868;37.472;2022-08-19T05:10:38;100103.44;;;22.70;nan
37858;BME280;23695;55.868;37.472;2022-08-19T05:13:05;100102.81;;;23.02;nan
37858;BME280;23695;55.868;37.472;2022-08-19T05:15:31;100104.69;;;23.12;nan
37858;BME280;23695;55.868;37.472;2022-08-19T05:17:56;100094.69;;;22.90;nan
37858;BME280;23695;55.868;37.472;2022-08-19T05:20:48;100108.81;;;22.81;nan
37858;BME280;23695;55.868;37.472;2022-08-19T05:23:32;100092.72;;;23.28;nan
37858;BME280;23695;55.868;37.472;2022-08-19T05:25:58;100101.28;;;23.33;nan
37858;BME280;23695;55.868;37.472;2022-08-19T05:28:24;100104.44;;;23.15;nan
37858;BME280;23695;55.868;37.472;2022-08-19T05:30:50;100103.25;;;23.19;nan
37858;BME280;23695;55.868;37.472;2022-08-19T05:33:17;100097.63;;;23.34;nan
37858;BME280;23695;55.868;37.472;2022-08-19T05:35:43;100095.34;;;23.97;nan
37858;BME280;23695;55.868;37.472;2022-08-19T05:38:10;100091.09;;;24.49;nan
37858;BME280;23695;55.868;37.472;2022-08-19T05:40:38;100090.94;;;25.04;nan
37858;BME280;23695;55.868;37.472;2022-08-19T05:43:06;100092.72;;;25.57;nan
37858;BME280;23695;55.868;37.472;2022-08-19T05:45:37;100085.91;;;25.93;nan
37858;BME280;23695;55.868;37.472;2022-08-19T05:48:03;100090.72;;;26.30;nan
37858;BME280;23695;55.868;37.472;2022-08-19T05:50:29;100083.84;;;26.06;nan
37858;BME280;23695;55.868;37.472;2022-08-19T05:52:55;100097.38;;;25.85;nan
37858;BME280;23695;55.868;37.472;2022-08-19T05:55:21;100094.25;;;26.21;nan
37858;BME280;23695;55.868;37.472;2022-08-19T05:57:48;100089.63;;;27.01;nan
37858;BME280;23695;55.868;37.472;2022-08-19T06:00:14;100101.56;;;26.69;nan
37858;BME280;23695;55.868;37.472;2022-08-19T06:02:40;100103.31;;;26.70;nan
37858;BME280;23695;55.868;37.472;2022-08-19T06:05:07;100103.28;;;26.99;nan
37858;BME280;23695;55.868;37.472;2022-08-19T06:07:38;100103.56;;;26.57;nan
37858;BME280;23695;55.868;37.472;2022-08-19T06:10:08;100095.50;;;26.17;nan
37858;BME280;23695;55.868;37.472;2022-08-19T06:12:35;100092.81;;;26.17;nan
37858;BME280;23695;55.868;37.472;2022-08-19T06:15:07;100104.44;;;26.07;nan
37858;BME280;23695;55.868;37.472;2022-08-19T06:17:33;100106.00;;;25.69;nan
37858;BME280;23695;55.868;37.472;2022-08-19T06:20:02;100105.34;;;25.56;nan
37858;BME280;23695;55.868;37.472;2022-08-19T06:22:28;100110.16;;;25.22;nan
37858;BME280;23695;55.868;37.472;2022-08-19T06:24:55;100116.31;;;25.34;nan
37858;BME280;23695;55.868;37.472;2022-08-19T06:27:22;100114.94;;;25.18;nan
37858;BME280;23695;55.868;37.472;2022-08-19T06:29:49;100112.47;;;24.94;nan
37858;BME280;23695;55.868;37.472;2022-08-19T06:32:16;100109.81;;;24.83;nan
37858;BME280;23695;55.868;37.472;2022-08-19T06:34:43;100111.28;;;24.87;nan
37858;BME280;23695;55.868;37.472;2022-08-19T06:37:10;100107.69;;;24.98;nan
37858;BME280;23695;55.868;37.472;2022-08-19T06:39:38;100112.25;;;25.18;nan
37858;BME280;23695;55.868;37.472;2022-08-19T06:42:05;100107.56;;;25.41;nan
37858;BME280;23695;55.868;37.472;2022-08-19T06:44:35;100113.06;;;25.91;nan
37858;BME280;23695;55.868;37.472;2022-08-19T06:47:07;100103.25;;;26.50;nan
37858;BME280;23695;55.868;37.472;2022-08-19T06:49:34;100109.13;;;26.75;nan
37858;BME280;23695;55.868;37.472;2022-08-19T06:52:00;100110.13;;;26.93;nan
37858;BME280;23695;55.868;37.472;2022-08-19T06:54:27;100103.28;;;27.28;nan
37858;BME280;23695;55.868;37.472;2022-08-19T06:56:59;100101.94;;;27.79;nan
37858;BME280;23695;55.868;37.472;2022-08-19T06:59:30;100106.72;;;28.05;nan
37858;BME280;23695;55.868;37.472;2022-08-19T07:01:59;100103.25;;;27.18;nan
37858;BME280;23695;55.868;37.472;2022-08-19T07:04:29;100105.16;;;26.79;nan
37858;BME280;23695;55.868;37.472;2022-08-19T07:07:06;100112.41;;;26.59;nan
37858;BME280;23695;55.868;37.472;2022-08-19T07:09:35;100110.50;;;26.40;nan
37858;BME280;23695;55.868;37.472;2022-08-19T07:12:06;100109.75;;;26.19;nan
37858;BME280;23695;55.868;37.472;2022-08-19T07:14:33;100107.09;;;25.88;nan
37858;BME280;23695;55.868;37.472;2022-08-19T07:17:03;100099.66;;;25.80;nan
37858;BME280;23695;55.868;37.472;2022-08-19T07:19:29;100097.72;;;25.92;nan
37858;BME280;23695;55.868;37.472;2022-08-19T07:21:56;100102.13;;;25.62;nan
37858;BME280;23695;55.868;37.472;2022-08-19T07:24:24;100093.84;;;25.54;nan
37858;BME280;23695;55.868;37.472;2022-08-19T07:26:52;100099.09;;;25.56;nan
37858;BME280;23695;55.868;37.472;2022-08-19T07:29:20;100100.63;;;25.48;nan
37858;BME280;23695;55.868;37.472;2022-08-19T07:31:50;100121.13;;;25.30;nan
37858;BME280;23695;55.868;37.472;2022-08-19T07:34:16;100114.88;;;25.29;nan
37858;BME280;23695;55.868;37.472;2022-08-19T07:36:43;100109.66;;;24.96;nan
37858;BME280;23695;55.868;37.472;2022-08-19T07:39:13;100102.34;;;24.86;nan
37858;BME280;23695;55.868;37.472;2022-08-19T07:41:39;100102.53;;;24.95;nan
37858;BME280;23695;55.868;37.472;2022-08-19T07:44:07;100113.25;;;24.85;nan
37858;BME280;23695;55.868;37.472;2022-08-19T07:46:35;100111.66;;;24.82;nan
37858;BME280;23695;55.868;37.472;2022-08-19T07:49:04;100113.84;;;24.88;nan
37858;BME280;23695;55.868;37.472;2022-08-19T07:51:30;100116.03;;;25.16;nan
37858;BME280;23695;55.868;37.472;2022-08-19T07:53:56;100116.41;;;25.11;nan
37858;BME280;23695;55.868;37.472;2022-08-19T07:56:22;100123.31;;;25.04;nan
37858;BME280;23695;55.868;37.472;2022-08-19T07:58:50;100126.19;;;25.02;nan
37858;BME280;23695;55.868;37.472;2022-08-19T08:01:24;100129.91;;;25.11;nan
37858;BME280;23695;55.868;37.472;2022-08-19T08:03:51;100101.53;;;25.59;nan
37858;BME280;23695;55.868;37.472;2022-08-19T08:06:37;100114.06;;;25.90;nan
37858;BME280;23695;55.868;37.472;2022-08-19T08:09:30;100129.69;;;26.18;nan
37858;BME280;23695;55.868;37.472;2022-08-19T08:12:00;100137.38;;;26.32;nan
37858;BME280;23695;55.868;37.472;2022-08-19T08:14:34;100118.41;;;26.63;nan
37858;BME280;23695;55.868;37.472;2022-08-19T08:17:00;100122.22;;;26.89;nan
37858;BME280;23695;55.868;37.472;2022-08-19T08:19:28;100138.91;;;26.85;nan
37858;BME280;23695;55.868;37.472;2022-08-19T08:21:56;100122.06;;;26.71;nan
37858;BME280;23695;55.868;37.472;2022-08-19T08:24:23;100139.63;;;26.27;nan
37858;BME280;23695;55.868;37.472;2022-08-19T08:26:49;100135.34;;;26.14;nan
37858;BME280;23695;55.868;37.472;2022-08-19T08:29:15;100171.19;;;26.17;nan
37858;BME280;23695;55.868;37.472;2022-08-19T08:31:43;100138.38;;;25.90;nan
37858;BME280;23695;55.868;37.472;2022-08-19T08:34:11;100143.91;;;25.89;nan
37858;BME280;23695;55.868;37.472;2022-08-19T08:36:39;100141.47;;;26.17;nan
37858;BME280;23695;55.868;37.472;2022-08-19T08:39:11;100145.59;;;26.11;nan
37858;BME280;23695;55.868;37.472;2022-08-19T08:42:11;100158.78;;;26.04;nan
37858;BME280;23695;55.868;37.472;2022-08-19T08:44:51;100158.38;;;26.09;nan
37858;BME280;23695;55.868;37.472;2022-08-19T08:47:20;100156.38;;;25.80;nan
37858;BME280;23695;55.868;37.472;2022-08-19T08:49:56;100167.75;;;25.84;nan
37858;BME280;23695;55.868;37.472;2022-08-19T08:52:28;100145.22;;;25.43;nan
37858;BME280;23695;55.868;37.472;2022-08-19T08:54:57;100156.38;;;25.28;nan
37858;BME280;23695;55.868;37.472;2022-08-19T08:57:40;100138.44;;;25.27;nan
37858;BME280;23695;55.868;37.472;2022-08-19T09:00:13;100150.53;;;25.12;nan
37858;BME280;23695;55.868;37.472;2022-08-19T09:02:42;100149.06;;;25.08;nan
37858;BME280;23695;55.868;37.472;2022-08-19T09:05:09;100151.69;;;24.98;nan
37858;BME280;23695;55.868;37.472;2022-08-19T09:07:43;100150.19;;;25.05;nan
37858;BME280;23695;55.868;37.472;2022-08-19T09:12:57;100134.50;;;25.31;nan
37858;BME280;23695;55.868;37.472;2022-08-19T09:15:33;100133.97;;;25.38;nan
37858;BME280;23695;55.868;37.472;2022-08-19T09:18:02;100152.00;;;25.37;nan
37858;BME280;23695;55.868;37.472;2022-08-19T09:20:29;100146.41;;;25.50;nan
37858;BME280;23695;55.868;37.472;2022-08-19T09:22:57;100151.47;;;25.64;nan
37858;BME280;23695;55.868;37.472;2022-08-19T09:25:24;100134.69;;;25.91;nan
37858;BME280;23695;55.868;37.472;2022-08-19T09:27:52;100140.84;;;26.03;nan
37858;BME280;23695;55.868;37.472;2022-08-19T09:30:23;100133.97;;;26.30;nan
37858;BME280;23695;55.868;37.472;2022-08-19T09:32:50;100133.97;;;26.40;nan
37858;BME280;23695;55.868;37.472;2022-08-19T09:35:19;100132.25;;;26.39;nan
37858;BME280;23695;55.868;37.472;2022-08-19T09:37:48;100136.44;;;26.02;nan
37858;BME280;23695;55.868;37.472;2022-08-19T09:40:15;100160.47;;;25.74;nan
37858;BME280;23695;55.868;37.472;2022-08-19T09:42:43;100146.41;;;25.81;nan
37858;BME280;23695;55.868;37.472;2022-08-19T09:45:10;100155.84;;;25.65;nan
37858;BME280;23695;55.868;37.472;2022-08-19T09:47:36;100137.06;;;25.85;nan
37858;BME280;23695;55.868;37.472;2022-08-19T09:50:08;100142.53;;;25.94;nan
37858;BME280;23695;55.868;37.472;2022-08-19T09:52:35;100153.88;;;25.88;nan
37858;BME280;23695;55.868;37.472;2022-08-19T09:55:11;100140.00;;;25.82;nan
37858;BME280;23695;55.868;37.472;2022-08-19T09:57:38;100153.63;;;25.70;nan
37858;BME280;23695;55.868;37.472;2022-08-19T10:00:07;100149.22;;;25.69;nan
37858;BME280;23695;55.868;37.472;2022-08-19T10:02:34;100144.09;;;25.66;nan
37858;BME280;23695;55.868;37.472;2022-08-19T10:05:00;100147.19;;;25.41;nan
37858;BME280;23695;55.868;37.472;2022-08-19T10:07:52;100161.09;;;25.36;nan
37858;BME280;23695;55.868;37.472;2022-08-19T10:10:18;100142.31;;;25.35;nan
37858;BME280;23695;55.868;37.472;2022-08-19T10:12:44;100146.59;;;25.58;nan
37858;BME280;23695;55.868;37.472;2022-08-19T10:15:13;100157.84;;;25.63;nan
37858;BME280;23695;55.868;37.472;2022-08-19T10:17:38;100179.38;;;25.74;nan
37858;BME280;23695;55.868;37.472;2022-08-19T10:20:04;100155.22;;;25.52;nan
37858;BME280;23695;55.868;37.472;2022-08-19T10:22:30;100152.31;;;25.65;nan
37858;BME280;23695;55.868;37.472;2022-08-19T10:24:56;100154.97;;;25.86;nan
37858;BME280;23695;55.868;37.472;2022-08-19T10:27:22;100164.69;;;25.67;nan
37858;BME280;23695;55.868;37.472;2022-08-19T10:29:48;100152.34;;;25.74;nan
37858;BME280;23695;55.868;37.472;2022-08-19T10:32:14;100168.59;;;25.53;nan
37858;BME280;23695;55.868;37.472;2022-08-19T10:34:40;100147.19;;;25.41;nan
37858;BME280;23695;55.868;37.472;2022-08-19T10:37:06;100165.09;;;25.42;nan
37858;BME280;23695;55.868;37.472;2022-08-19T10:39:34;100163.06;;;25.55;nan
37858;BME280;23695;55.868;37.472;2022-08-19T10:42:05;100169.47;;;25.54;nan
37858;BME280;23695;55.868;37.472;2022-08-19T10:44:33;100146.66;;;25.47;nan
37858;BME280;23695;55.868;37.472;2022-08-19T10:47:01;100168.81;;;25.41;nan
37858;BME280;23695;55.868;37.472;2022-08-19T10:49:27;100164.91;;;25.34;nan
37858;BME280;23695;55.868;37.472;2022-08-19T10:51:53;100154.56;;;25.39;nan
37858;BME280;23695;55.868;37.472;2022-08-19T10:54:38;100162.94;;;25.36;nan
37858;BME280;23695;55.868;37.472;2022-08-19T10:57:22;100157.72;;;25.44;nan
37858;BME280;23695;55.868;37.472;2022-08-19T10:59:55;100159.75;;;25.51;nan
37858;BME280;23695;55.868;37.472;2022-08-19T11:02:21;100172.06;;;25.65;nan
37858;BME280;23695;55.868;37.472;2022-08-19T11:04:47;100185.38;;;25.57;nan
37858;BME280;23695;55.868;37.472;2022-08-19T11:07:15;100169.78;;;25.40;nan
37858;BME280;23695;55.868;37.472;2022-08-19T11:09:43;100165.44;;;25.48;nan
37858;BME280;23695;55.868;37.472;2022-08-19T11:12:09;100165.16;;;25.51;nan
37858;BME280;23695;55.868;37.472;2022-08-19T11:14:38;100158.38;;;25.57;nan
37858;BME280;23695;55.868;37.472;2022-08-19T11:17:05;100154.16;;;25.64;nan
37858;BME280;23695;55.868;37.472;2022-08-19T11:19:31;100139.41;;;25.89;nan
37858;BME280;23695;55.868;37.472;2022-08-19T11:21:57;100146.50;;;25.90;nan
37858;BME280;23695;55.868;37.472;2022-08-19T11:24:24;100147.78;;;25.96;nan
37858;BME280;23695;55.868;37.472;2022-08-19T11:26:53;100139.16;;;25.81;nan
37858;BME280;23695;55.868;37.472;2022-08-19T11:29:23;100142.69;;;25.51;nan
37858;BME280;23695;55.868;37.472;2022-08-19T11:31:53;100138.94;;;25.63;nan
37858;BME280;23695;55.868;37.472;2022-08-19T11:34:21;100156.97;;;25.63;nan
37858;BME280;23695;55.868;37.472;2022-08-19T11:36:48;100139.03;;;25.52;nan
37858;BME280;23695;55.868;37.472;2022-08-19T11:39:16;100158.72;;;25.64;nan
37858;BME280;23695;55.868;37.472;2022-08-19T11:41:43;100166.56;;;25.46;nan
37858;BME280;23695;55.868;37.472;2022-08-19T11:44:09;100148.44;;;25.37;nan
37858;BME280;23695;55.868;37.472;2022-08-19T11:46:36;100140.00;;;25.30;nan
37858;BME280;23695;55.868;37.472;2022-08-19T11:49:04;100150.06;;;25.49;nan
37858;BME280;23695;55.868;37.472;2022-08-19T11:51:31;100158.84;;;25.62;nan
37858;BME280;23695;55.868;37.472;2022-08-19T11:53:58;100155.84;;;25.65;nan
37858;BME280;23695;55.868;37.472;2022-08-19T11:56:25;100186.13;;;25.59;nan
37858;BME280;23695;55.868;37.472;2022-08-19T11:58:53;100166.28;;;25.49;nan
37858;BME280;23695;55.868;37.472;2022-08-19T12:01:21;100169.19;;;25.57;nan
37858;BME280;23695;55.868;37.472;2022-08-19T12:03:49;100190.84;;;25.46;nan
37858;BME280;23695;55.868;37.472;2022-08-19T12:06:19;100163.47;;;25.50;nan
37858;BME280;23695;55.868;37.472;2022-08-19T12:08:45;100151.34;;;25.45;nan
37858;BME280;23695;55.868;37.472;2022-08-19T12:11:13;100161.03;;;25.47;nan
37858;BME280;23695;55.868;37.472;2022-08-19T12:13:40;100159.19;;;25.48;nan
37858;BME280;23695;55.868;37.472;2022-08-19T12:16:11;100164.59;;;25.48;nan
37858;BME280;23695;55.868;37.472;2022-08-19T12:18:41;100161.44;;;25.43;nan
37858;BME280;23695;55.868;37.472;2022-08-19T12:21:09;100154.97;;;25.55;nan
37858;BME280;23695;55.868;37.472;2022-08-19T12:23:36;100153.94;;;25.77;nan
37858;BME280;23695;55.868;37.472;2022-08-19T12:26:03;100169.47;;;25.85;nan
37858;BME280;23695;55.868;37.472;2022-08-19T12:28:30;100166.13;;;25.71;nan
37858;BME280;23695;55.868;37.472;2022-08-19T12:30:56;100153.34;;;25.73;nan
37858;BME280;23695;55.868;37.472;2022-08-19T12:33:22;100164.94;;;25.85;nan
37858;BME280;23695;55.868;37.472;2022-08-19T12:35:51;100143.72;;;25.81;nan
37858;BME280;23695;55.868;37.472;2022-08-19T12:38:18;100143.72;;;25.81;nan
37858;BME280;23695;55.868;37.472;2022-08-19T12:40:47;100141.56;;;25.53;nan
37858;BME280;23695;55.868;37.472;2022-08-19T12:43:14;100135.59;;;25.50;nan
37858;BME280;23695;55.868;37.472;2022-08-19T12:45:41;100129.47;;;25.48;nan
37858;BME280;23695;55.868;37.472;2022-08-19T12:48:09;100142.13;;;25.26;nan
37858;BME280;23695;55.868;37.472;2022-08-19T12:50:35;100144.28;;;25.33;nan
37858;BME280;23695;55.868;37.472;2022-08-19T12:53:00;100144.94;;;25.46;nan
37858;BME280;23695;55.868;37.472;2022-08-19T12:55:26;100163.69;;;25.38;nan
37858;BME280;23695;55.868;37.472;2022-08-19T12:57:54;100155.63;;;25.26;nan
37858;BME280;23695;55.868;37.472;2022-08-19T13:00:21;100153.38;;;25.31;nan
37858;BME280;23695;55.868;37.472;2022-08-19T13:02:49;100144.50;;;25.20;nan
37858;BME280;23695;55.868;37.472;2022-08-19T13:05:18;100142.66;;;25.20;nan
37858;BME280;23695;55.868;37.472;2022-08-19T13:07:49;100149.00;;;25.30;nan
37858;BME280;23695;55.868;37.472;2022-08-19T13:10:18;100150.56;;;25.33;nan
37858;BME280;23695;55.868;37.472;2022-08-19T13:12:46;100142.19;;;25.57;nan